Time;durP1;ratioP1;P1;durP2;ratioP2;P2;SDS_P1;SDS_P2;PMS_P1;PMS_P2;Temp;Humidity;BMP_temperature;BMP_pressure;BME280_temperature;BME280_humidity;BME280_pressure;Samples;Min_cycle;Max_cycle;Signal;HPM_P1;HPM_P2
2023/05/22 00:00:08;;;;;;;8.63;7.73;;;;;;;;;;5035756;28;20202;-75
2023/05/22 00:03:14;;;;;;;10.03;7.73;;;;;;;;;;5035376;28;20691;-75
2023/05/22 00:06:18;;;;;;;9.57;7.43;;;;;;;;;;5023588;28;20183;-74
2023/05/22 00:09:25;;;;;;;9.40;7.77;;;;;;;;;;5023469;28;20180;-74
2023/05/22 00:12:29;;;;;;;10.80;7.97;;;;;;;;;;5035456;28;20560;-76
2023/05/22 00:15:34;;;;;;;17.67;8.50;;;;;;;;;;5035277;28;20177;-76
2023/05/22 00:18:41;;;;;;;13.00;7.30;;;;;;;;;;5023321;28;20188;-76
2023/05/22 00:21:45;;;;;;;12.60;9.03;;;;;;;;;;5035454;28;20208;-75
2023/05/22 00:24:49;;;;;;;11.13;7.93;;;;;;;;;;5035359;28;20188;-75
2023/05/22 00:27:53;;;;;;;10.27;8.90;;;;;;;;;;5022897;28;20189;-76
2023/05/22 00:30:58;;;;;;;10.80;7.97;;;;;;;;;;5011751;28;20220;-75
2023/05/22 00:34:02;;;;;;;11.07;8.53;;;;;;;;;;5000504;28;20185;-76
2023/05/22 00:37:07;;;;;;;9.53;8.53;;;;;;;;;;5022937;28;20208;-76
2023/05/22 00:40:12;;;;;;;10.70;8.67;;;;;;;;;;5034051;28;20180;-76
2023/05/22 00:43:16;;;;;;;9.87;8.57;;;;;;;;;;5022598;28;20607;-75
2023/05/22 00:46:21;;;;;;;9.63;8.60;;;;;;;;;;5022775;28;20197;-76
2023/05/22 00:49:25;;;;;;;10.23;9.00;;;;;;;;;;5034594;28;20196;-75
2023/05/22 00:52:30;;;;;;;9.97;8.70;;;;;;;;;;5022618;28;20220;-76
2023/05/22 00:55:34;;;;;;;13.07;9.40;;;;;;;;;;5022591;28;20628;-76
2023/05/22 00:58:38;;;;;;;12.43;9.33;;;;;;;;;;5022325;28;20204;-76
2023/05/22 01:01:43;;;;;;;12.17;8.50;;;;;;;;;;5034626;28;20200;-75
2023/05/22 01:04:48;;;;;;;12.03;9.23;;;;;;;;;;5022209;28;20184;-75
2023/05/22 01:07:52;;;;;;;11.23;8.30;;;;;;;;;;5034320;28;20180;-75
2023/05/22 01:11:03;;;;;;;10.37;8.73;;;;;;;;;;5022065;28;20280;-76
2023/05/22 01:14:40;;;;;;;12.07;8.73;;;;;;;;;;5021990;28;20216;-75
2023/05/22 01:17:54;;;;;;;10.23;8.50;;;;;;;;;;5011019;28;20200;-76
2023/05/22 01:21:04;;;;;;;11.87;9.20;;;;;;;;;;5021930;28;20177;-76
2023/05/22 01:24:26;;;;;;;10.87;8.90;;;;;;;;;;5022178;28;20649;-75
2023/05/22 01:27:52;;;;;;;10.83;8.80;;;;;;;;;;5010598;28;20275;-76
2023/05/22 01:31:11;;;;;;;12.53;8.97;;;;;;;;;;5021881;28;20696;-76
2023/05/22 01:34:17;;;;;;;12.67;9.17;;;;;;;;;;5021607;28;20193;-77
2023/05/22 01:37:23;;;;;;;12.13;8.87;;;;;;;;;;5021694;28;20184;-77
2023/05/22 01:40:30;;;;;;;12.45;10.23;;;;;;;;;;5009208;28;20685;-77
2023/05/22 01:43:35;;;;;;;11.97;9.07;;;;;;;;;;5032606;28;20215;-77
2023/05/22 01:46:40;;;;;;;11.40;8.63;;;;;;;;;;5033556;28;20659;-77
2023/05/22 01:49:46;;;;;;;13.07;9.57;;;;;;;;;;5009748;28;20187;-76
2023/05/22 01:53:11;;;;;;;12.63;8.97;;;;;;;;;;5021176;28;20220;-77
2023/05/22 01:56:21;;;;;;;11.30;9.20;;;;;;;;;;4999035;28;20180;-77
2023/05/22 01:59:38;;;;;;;13.37;9.43;;;;;;;;;;5021224;28;20544;-77
2023/05/22 02:02:49;;;;;;;13.73;9.23;;;;;;;;;;5009547;28;20233;-77
2023/05/22 02:06:14;;;;;;;10.50;9.17;;;;;;;;;;5024291;28;20191;-77
2023/05/22 02:09:20;;;;;;;12.43;9.30;;;;;;;;;;5021352;28;20563;-77
2023/05/22 02:12:24;;;;;;;12.43;9.30;;;;;;;;;;5021019;28;20230;-77
2023/05/22 02:15:29;;;;;;;12.37;9.47;;;;;;;;;;5009697;28;20192;-76
2023/05/22 02:18:33;;;;;;;15.97;9.73;;;;;;;;;;5021112;28;20246;-76
2023/05/22 02:21:37;;;;;;;11.27;8.43;;;;;;;;;;5020790;28;20208;-77
2023/05/22 02:24:44;;;;;;;10.47;9.00;;;;;;;;;;5020798;28;20203;-76
2023/05/22 02:27:48;;;;;;;11.70;8.83;;;;;;;;;;5021141;28;20192;-76
2023/05/22 02:30:53;;;;;;;10.47;9.37;;;;;;;;;;5020960;28;20567;-76
2023/05/22 02:33:57;;;;;;;14.43;9.53;;;;;;;;;;5033220;28;20190;-76
2023/05/22 02:37:02;;;;;;;10.33;9.23;;;;;;;;;;5032944;28;20185;-76
2023/05/22 02:40:08;;;;;;;12.93;9.73;;;;;;;;;;5020980;28;20193;-76
2023/05/22 02:43:13;;;;;;;13.60;9.17;;;;;;;;;;5020691;28;20212;-76
2023/05/22 02:46:18;;;;;;;10.53;9.43;;;;;;;;;;5020601;28;20207;-76
2023/05/22 02:49:22;;;;;;;12.00;9.57;;;;;;;;;;4998196;28;20211;-76
2023/05/22 02:52:27;;;;;;;12.87;9.53;;;;;;;;;;5020364;28;20239;-76
2023/05/22 02:55:31;;;;;;;13.13;9.60;;;;;;;;;;5033272;28;20188;-76
2023/05/22 02:58:35;;;;;;;13.07;8.93;;;;;;;;;;5020549;28;20185;-76
2023/05/22 03:01:39;;;;;;;10.57;9.20;;;;;;;;;;5020382;28;20200;-76
2023/05/22 03:04:44;;;;;;;11.37;9.90;;;;;;;;;;5036776;28;20207;-76
2023/05/22 03:07:47;;;;;;;12.07;10.07;;;;;;;;;;5024494;28;20192;-76
2023/05/22 03:10:52;;;;;;;11.27;9.70;;;;;;;;;;5024447;28;20185;-76
2023/05/22 03:13:56;;;;;;;11.47;10.03;;;;;;;;;;5024158;28;20194;-76
2023/05/22 03:17:00;;;;;;;12.80;10.37;;;;;;;;;;5035968;28;20199;-76
2023/05/22 03:20:05;;;;;;;10.37;9.27;;;;;;;;;;5024095;28;20203;-76
2023/05/22 03:23:11;;;;;;;13.57;10.10;;;;;;;;;;5012876;28;20571;-76
2023/05/22 03:26:15;;;;;;;18.27;10.27;;;;;;;;;;5024072;28;20212;-76
2023/05/22 03:29:20;;;;;;;14.23;10.57;;;;;;;;;;5035546;28;20216;-76
2023/05/22 03:32:25;;;;;;;13.13;9.90;;;;;;;;;;5036097;28;20239;-76
2023/05/22 03:35:29;;;;;;;12.20;9.40;;;;;;;;;;5023849;28;20666;-76
2023/05/22 03:38:33;;;;;;;16.43;11.10;;;;;;;;;;5012722;28;20190;-76
2023/05/22 03:41:37;;;;;;;15.57;10.50;;;;;;;;;;5023935;28;20184;-76
2023/05/22 03:44:42;;;;;;;12.07;10.77;;;;;;;;;;5034995;28;20188;-76
2023/05/22 03:47:47;;;;;;;11.63;10.43;;;;;;;;;;5012492;28;20192;-76
2023/05/22 03:50:51;;;;;;;13.40;10.27;;;;;;;;;;5001395;28;20188;-76
2023/05/22 03:53:54;;;;;;;15.17;10.43;;;;;;;;;;5023754;28;20188;-76
2023/05/22 03:56:59;;;;;;;13.50;10.67;;;;;;;;;;5034978;28;20208;-76
2023/05/22 04:00:11;;;;;;;17.87;10.37;;;;;;;;;;5034636;28;20200;-76
2023/05/22 04:03:18;;;;;;;12.70;10.40;;;;;;;;;;5023211;28;20224;-76
2023/05/22 04:06:22;;;;;;;13.27;10.20;;;;;;;;;;5000968;28;20199;-76
2023/05/22 04:09:26;;;;;;;11.60;10.37;;;;;;;;;;5035622;28;20188;-76
2023/05/22 04:12:30;;;;;;;13.30;11.10;;;;;;;;;;5011498;28;20236;-76
2023/05/22 04:15:35;;;;;;;13.93;10.30;;;;;;;;;;5035430;28;20204;-76
2023/05/22 04:18:39;;;;;;;13.83;9.90;;;;;;;;;;5034338;28;20203;-76
2023/05/22 04:21:44;;;;;;;13.80;10.37;;;;;;;;;;5011856;28;20192;-76
2023/05/22 04:24:48;;;;;;;13.83;10.27;;;;;;;;;;5035561;28;20192;-76
2023/05/22 04:27:52;;;;;;;12.27;10.27;;;;;;;;;;5035062;28;20675;-76
2023/05/22 04:30:56;;;;;;;12.07;10.70;;;;;;;;;;5034400;28;20536;-76
2023/05/22 04:34:01;;;;;;;12.57;9.80;;;;;;;;;;5034286;28;20180;-76
2023/05/22 04:37:05;;;;;;;12.80;10.10;;;;;;;;;;5023018;28;20207;-76
2023/05/22 04:40:11;;;;;;;15.97;10.90;;;;;;;;;;5033993;28;20200;-76
2023/05/22 04:43:17;;;;;;;19.27;11.30;;;;;;;;;;5034318;28;20235;-76
2023/05/22 04:46:21;;;;;;;18.20;10.80;;;;;;;;;;5022870;28;20180;-76
2023/05/22 04:49:25;;;;;;;13.33;10.70;;;;;;;;;;5034930;28;20184;-76
2023/05/22 04:52:29;;;;;;;13.57;10.70;;;;;;;;;;5010974;28;20235;-77
2023/05/22 04:55:52;;;;;;;17.20;11.37;;;;;;;;;;5034894;28;20192;-77
2023/05/22 04:59:15;;;;;;;18.20;11.37;;;;;;;;;;5025085;28;20204;-76
2023/05/22 05:02:20;;;;;;;12.43;9.97;;;;;;;;;;5033563;28;20232;-75
2023/05/22 05:05:25;;;;;;;13.87;11.23;;;;;;;;;;5011013;28;20181;-75
2023/05/22 05:08:30;;;;;;;13.67;11.33;;;;;;;;;;5022538;28;20192;-76
2023/05/22 05:11:35;;;;;;;12.53;10.67;;;;;;;;;;5010615;28;20201;-76
2023/05/22 05:14:38;;;;;;;17.67;11.00;;;;;;;;;;5033711;28;20682;-76
2023/05/22 05:17:42;;;;;;;20.77;10.63;;;;;;;;;;5033640;28;20184;-76
2023/05/22 05:20:46;;;;;;;15.67;10.53;;;;;;;;;;5021913;28;20196;-75
2023/05/22 05:23:50;;;;;;;13.03;10.83;;;;;;;;;;5022135;28;20184;-75
2023/05/22 05:26:54;;;;;;;12.17;10.33;;;;;;;;;;5034198;28;20188;-76
2023/05/22 05:29:59;;;;;;;11.90;10.63;;;;;;;;;;5010782;28;20196;-75
2023/05/22 05:33:12;;;;;;;12.90;10.03;;;;;;;;;;5032947;28;20327;-75
2023/05/22 05:36:33;;;;;;;17.57;10.60;;;;;;;;;;5021425;28;20184;-76
2023/05/22 05:39:37;;;;;;;14.60;9.80;;;;;;;;;;5033228;28;20654;-76
2023/05/22 05:42:43;;;;;;;11.57;10.03;;;;;;;;;;5021758;28;20215;-76
2023/05/22 05:45:48;;;;;;;12.47;10.10;;;;;;;;;;5021593;28;20179;-75
2023/05/22 05:48:53;;;;;;;11.90;9.63;;;;;;;;;;5032864;28;20184;-76
2023/05/22 05:51:59;;;;;;;12.23;10.17;;;;;;;;;;5021273;28;20224;-76
2023/05/22 05:55:05;;;;;;;11.27;9.73;;;;;;;;;;5021355;28;20188;-76
2023/05/22 05:58:09;;;;;;;13.03;9.70;;;;;;;;;;5010380;28;20180;-76
2023/05/22 06:01:33;;;;;;;12.73;9.87;;;;;;;;;;5021137;28;20213;-76
2023/05/22 06:04:37;;;;;;;14.07;9.67;;;;;;;;;;5021268;28;20683;-76
2023/05/22 06:07:42;;;;;;;14.67;9.83;;;;;;;;;;5021149;28;20209;-76
2023/05/22 06:10:47;;;;;;;11.83;9.23;;;;;;;;;;5021041;28;20307;-76
2023/05/22 06:14:06;;;;;;;13.67;10.03;;;;;;;;;;5021066;28;20220;-76
2023/05/22 06:17:10;;;;;;;10.50;9.13;;;;;;;;;;5021359;28;20184;-76
2023/05/22 06:20:20;;;;;;;15.10;9.77;;;;;;;;;;5035687;23;20243;-73
2023/05/22 06:23:24;;;;;;;10.57;8.80;;;;;;;;;;5021421;28;20711;-72
2023/05/22 06:26:29;;;;;;;13.20;10.23;;;;;;;;;;5009553;28;20213;-73
2023/05/22 06:29:33;;;;;;;11.97;9.47;;;;;;;;;;5033378;28;20551;-73
2023/05/22 06:32:38;;;;;;;10.10;8.90;;;;;;;;;;5020920;28;20323;-73
2023/05/22 06:35:44;;;;;;;11.33;8.93;;;;;;;;;;5021955;28;20184;-72
2023/05/22 06:38:48;;;;;;;13.27;9.47;;;;;;;;;;5013832;28;20177;-73
2023/05/22 06:42:16;;;;;;;12.53;9.70;;;;;;;;;;5028468;28;20212;-73
2023/05/22 06:45:38;;;;;;;16.20;10.97;;;;;;;;;;5037339;28;20184;-72
2023/05/22 06:48:57;;;;;;;12.73;10.37;;;;;;;;;;5036260;28;20192;-73
2023/05/22 06:52:04;;;;;;;15.80;11.00;;;;;;;;;;5036309;28;20591;-73
2023/05/22 06:55:08;;;;;;;15.23;11.03;;;;;;;;;;5037366;28;20191;-72
2023/05/22 06:58:25;;;;;;;14.43;10.87;;;;;;;;;;5024599;28;20196;-72
2023/05/22 07:01:29;;;;;;;17.77;11.77;;;;;;;;;;5024576;28;20183;-72
2023/05/22 07:04:46;;;;;;;12.23;10.23;;;;;;;;;;5024597;28;20208;-72
2023/05/22 07:07:55;;;;;;;12.23;10.93;;;;;;;;;;5036126;28;20192;-72
2023/05/22 07:11:00;;;;;;;56.97;13.03;;;;;;;;;;5035893;28;20188;-72
2023/05/22 07:14:04;;;;;;;13.60;11.23;;;;;;;;;;5024393;28;20690;-72
2023/05/22 07:17:09;;;;;;;13.93;10.80;;;;;;;;;;5024282;28;20686;-73
2023/05/22 07:20:18;;;;;;;14.57;10.50;;;;;;;;;;5024096;28;20207;-73
2023/05/22 07:23:35;;;;;;;17.17;10.83;;;;;;;;;;5035599;28;20219;-73
2023/05/22 07:26:45;;;;;;;11.80;10.60;;;;;;;;;;5013153;28;20531;-72
2023/05/22 07:29:49;;;;;;;12.00;10.40;;;;;;;;;;5035646;28;20188;-72
2023/05/22 07:32:54;;;;;;;11.30;10.00;;;;;;;;;;5013026;28;20227;-72
2023/05/22 07:35:59;;;;;;;12.40;9.87;;;;;;;;;;5024148;28;20184;-72
2023/05/22 07:39:04;;;;;;;12.50;10.37;;;;;;;;;;5036295;28;20177;-72
2023/05/22 07:42:12;;;;;;;10.47;9.43;;;;;;;;;;5024002;28;20223;-72
2023/05/22 07:45:25;;;;;;;12.70;9.63;;;;;;;;;;5023777;28;20284;-73
2023/05/22 07:48:30;;;;;;;17.40;10.57;;;;;;;;;;5012164;28;20536;-73
2023/05/22 07:51:34;;;;;;;12.73;10.20;;;;;;;;;;5035250;28;20182;-73
2023/05/22 07:54:39;;;;;;;12.70;9.30;;;;;;;;;;5023496;28;20185;-73
2023/05/22 07:57:46;;;;;;;19.13;10.30;;;;;;;;;;5023571;28;20182;-73
2023/05/22 08:00:58;;;;;;;11.33;8.97;;;;;;;;;;5023776;28;20550;-73
2023/05/22 08:04:02;;;;;;;14.37;10.20;;;;;;;;;;5023862;28;20190;-73
2023/05/22 08:07:06;;;;;;;12.33;9.57;;;;;;;;;;5012423;28;20187;-73
2023/05/22 08:10:16;;;;;;;14.35;8.57;;;;;;;;;;5001281;28;20188;-73
2023/05/22 08:13:21;;;;;;;14.05;9.80;;;;;;;;;;5023330;28;20236;-73
2023/05/22 08:16:25;;;;;;;9.95;8.95;;;;;;;;;;5012391;28;20194;-73
2023/05/22 08:19:29;;;;;;;12.93;9.05;;;;;;;;;;5035929;28;20179;-72
2023/05/22 08:22:34;;;;;;;14.07;8.93;;;;;;;;;;5035571;28;20226;-72
2023/05/22 08:25:38;;;;;;;9.70;8.70;;;;;;;;;;5035475;28;20184;-72
2023/05/22 08:28:43;;;;;;;9.88;8.88;;;;;;;;;;5014642;28;20656;-71
2023/05/22 08:31:47;;;;;;;10.30;8.88;;;;;;;;;;5038669;28;20219;-71
2023/05/22 08:34:51;;;;;;;11.00;9.20;;;;;;;;;;5026009;28;20179;-71
2023/05/22 08:37:55;;;;;;;253.90;20.88;;;;;;;;;;5038230;28;20188;-72
2023/05/22 08:41:00;;;;;;;15.55;8.25;;;;;;;;;;5038273;28;20190;-72
2023/05/22 08:44:04;;;;;;;9.63;8.32;;;;;;;;;;5038804;28;20601;-71
2023/05/22 08:47:12;;;;;;;10.57;8.27;;;;;;;;;;5025759;28;20517;-72
2023/05/22 08:50:17;;;;;;;9.13;8.23;;;;;;;;;;5014368;28;20248;-72
2023/05/22 08:53:23;;;;;;;12.75;8.77;;;;;;;;;;5025181;28;20221;-71
2023/05/22 08:56:28;;;;;;;28.52;9.90;;;;;;;;;;5037047;28;20205;-72
2023/05/22 08:59:34;;;;;;;12.80;9.60;;;;;;;;;;5035910;28;20203;-72
2023/05/22 09:02:40;;;;;;;12.82;8.82;;;;;;;;;;5024148;28;20672;-71
2023/05/22 09:05:44;;;;;;;9.23;8.32;;;;;;;;;;5036823;28;20181;-72
2023/05/22 09:08:48;;;;;;;10.93;8.85;;;;;;;;;;5036351;28;20612;-72
2023/05/22 09:11:53;;;;;;;21.13;8.77;;;;;;;;;;5035891;28;20219;-72
2023/05/22 09:15:07;;;;;;;9.93;8.93;;;;;;;;;;5035705;28;20230;-72
2023/05/22 09:18:12;;;;;;;23.73;8.82;;;;;;;;;;5035426;28;20179;-72
2023/05/22 09:21:18;;;;;;;9.55;8.63;;;;;;;;;;5034881;28;20685;-72
2023/05/22 09:24:22;;;;;;;10.00;8.85;;;;;;;;;;5011786;28;20182;-72
2023/05/22 09:27:26;;;;;;;12.25;8.65;;;;;;;;;;5035075;28;20183;-72
2023/05/22 09:30:33;;;;;;;9.88;7.97;;;;;;;;;;5022559;28;20176;-72
2023/05/22 09:33:37;;;;;;;8.60;7.70;;;;;;;;;;5022207;28;20232;-72
2023/05/22 09:36:41;;;;;;;9.02;8.00;;;;;;;;;;5034499;28;20177;-72
2023/05/22 09:39:47;;;;;;;10.00;7.95;;;;;;;;;;5034262;28;20185;-72
2023/05/22 09:42:51;;;;;;;12.15;8.35;;;;;;;;;;5034371;28;20226;-72
2023/05/22 09:45:59;;;;;;;9.63;8.10;;;;;;;;;;5034157;28;20571;-72
2023/05/22 09:49:03;;;;;;;8.60;7.72;;;;;;;;;;5034270;28;20185;-72
2023/05/22 09:52:08;;;;;;;9.70;7.80;;;;;;;;;;5033904;28;20216;-72
2023/05/22 09:55:13;;;;;;;12.77;7.70;;;;;;;;;;5034232;28;20620;-72
2023/05/22 09:58:18;;;;;;;8.05;7.10;;;;;;;;;;5021880;28;20182;-72
2023/05/22 10:01:24;;;;;;;7.68;7.00;;;;;;;;;;5021999;28;20181;-72
2023/05/22 10:04:31;;;;;;;9.73;7.90;;;;;;;;;;5033850;28;20178;-72
2023/05/22 10:07:45;;;;;;;12.23;7.90;;;;;;;;;;5033998;28;20185;-72
2023/05/22 10:10:53;;;;;;;15.10;8.10;;;;;;;;;;5033602;28;20196;-72
2023/05/22 10:13:59;;;;;;;10.43;7.47;;;;;;;;;;5021585;28;20216;-72
2023/05/22 10:17:05;;;;;;;8.73;7.93;;;;;;;;;;5021615;28;20181;-72
2023/05/22 10:20:11;;;;;;;12.35;7.97;;;;;;;;;;5021323;28;20181;-72
2023/05/22 10:23:16;;;;;;;8.50;7.45;;;;;;;;;;5021565;28;20224;-72
2023/05/22 10:26:21;;;;;;;9.70;7.22;;;;;;;;;;5021508;28;20185;-72
2023/05/22 10:29:53;;;;;;;148.90;15.25;;;;;;;;;;5033195;28;20201;-72
2023/05/22 10:33:20;;;;;;;29.70;8.90;;;;;;;;;;5032505;28;20219;-72
2023/05/22 10:36:30;;;;;;;158.65;15.65;;;;;;;;;;5021787;28;20189;-72
2023/05/22 10:40:00;;;;;;;7.55;6.80;;;;;;;;;;5033334;28;20192;-72
2023/05/22 10:43:04;;;;;;;10.05;7.78;;;;;;;;;;5033269;28;20691;-72
2023/05/22 10:46:11;;;;;;;12.85;7.20;;;;;;;;;;5021072;28;20184;-71
2023/05/22 10:49:24;;;;;;;11.32;7.63;;;;;;;;;;5021388;28;20186;-72
2023/05/22 10:52:31;;;;;;;8.07;6.65;;;;;;;;;;5033078;28;20600;-72
2023/05/22 10:55:51;;;;;;;8.55;7.63;;;;;;;;;;5033561;28;20174;-70
2023/05/22 10:59:01;;;;;;;9.73;8.02;;;;;;;;;;5033074;28;20193;-69
2023/05/22 11:02:20;;;;;;;9.32;7.85;;;;;;;;;;5033309;28;20253;-69
2023/05/22 11:05:35;;;;;;;9.40;7.90;;;;;;;;;;5033078;28;20177;-69
2023/05/22 11:08:39;;;;;;;10.02;8.25;;;;;;;;;;5021050;28;20178;-69
2023/05/22 11:12:04;;;;;;;8.35;7.53;;;;;;;;;;5033262;28;20185;-69
2023/05/22 11:15:09;;;;;;;9.63;7.18;;;;;;;;;;5032720;28;20209;-69
2023/05/22 11:18:15;;;;;;;11.30;8.13;;;;;;;;;;5009623;28;20186;-69
2023/05/22 11:21:21;;;;;;;8.95;7.97;;;;;;;;;;5020613;28;20219;-69
2023/05/22 11:24:24;;;;;;;8.38;7.47;;;;;;;;;;5035838;28;20181;-70
2023/05/22 11:27:28;;;;;;;8.45;7.65;;;;;;;;;;5037121;28;20181;-69
2023/05/22 11:30:33;;;;;;;8.05;7.32;;;;;;;;;;5024493;28;20185;-69
2023/05/22 11:33:38;;;;;;;10.50;8.02;;;;;;;;;;5024556;28;20695;-70
2023/05/22 11:36:42;;;;;;;10.45;7.38;;;;;;;;;;5036960;28;20188;-69
2023/05/22 11:40:03;;;;;;;12.60;7.80;;;;;;;;;;5036616;28;20653;-69
2023/05/22 11:43:07;;;;;;;7.53;6.82;;;;;;;;;;5036587;28;20220;-69
2023/05/22 11:46:12;;;;;;;9.73;7.80;;;;;;;;;;5036031;28;20197;-69
2023/05/22 11:49:17;;;;;;;9.63;7.40;;;;;;;;;;5024156;28;20636;-69
2023/05/22 11:52:21;;;;;;;11.05;7.40;;;;;;;;;;5035901;28;20213;-69
2023/05/22 11:55:25;;;;;;;7.57;6.80;;;;;;;;;;5024093;28;20222;-69
2023/05/22 11:58:29;;;;;;;28.48;7.53;;;;;;;;;;5023804;28;20185;-69
2023/05/22 12:01:35;;;;;;;10.15;7.57;;;;;;;;;;5035955;28;20575;-69
2023/05/22 12:04:39;;;;;;;9.52;6.68;;;;;;;;;;5035922;28;20173;-69
2023/05/22 12:07:44;;;;;;;8.70;6.07;;;;;;;;;;5036184;28;20177;-70
2023/05/22 12:10:49;;;;;;;6.63;6.03;;;;;;;;;;5035759;28;20185;-69
2023/05/22 12:14:00;;;;;;;12.10;6.45;;;;;;;;;;5035714;28;20212;-69
2023/05/22 12:17:05;;;;;;;7.32;6.03;;;;;;;;;;5035892;28;20181;-69
2023/05/22 12:20:12;;;;;;;7.18;6.47;;;;;;;;;;5023288;28;20197;-70
2023/05/22 12:23:27;;;;;;;7.10;6.32;;;;;;;;;;5035393;28;20656;-69
2023/05/22 12:26:31;;;;;;;7.15;5.80;;;;;;;;;;5023091;28;20189;-70
2023/05/22 12:29:37;;;;;;;15.10;6.60;;;;;;;;;;5023741;28;20508;-69
2023/05/22 12:32:48;;;;;;;6.72;6.03;;;;;;;;;;5022906;28;20215;-69
2023/05/22 12:35:53;;;;;;;6.10;5.50;;;;;;;;;;5011481;28;20664;-69
2023/05/22 12:38:57;;;;;;;7.38;5.88;;;;;;;;;;5035237;28;20177;-69
2023/05/22 12:42:01;;;;;;;6.25;5.65;;;;;;;;;;5049569;22;20236;-74
2023/05/22 12:45:06;;;;;;;5.90;5.30;;;;;;;;;;5034989;28;20173;-74
2023/05/22 12:48:10;;;;;;;6.47;5.70;;;;;;;;;;5034649;28;20628;-74
2023/05/22 12:51:14;;;;;;;6.32;5.78;;;;;;;;;;5022782;28;20185;-74
2023/05/22 12:54:18;;;;;;;8.27;5.75;;;;;;;;;;5034536;28;20208;-74
2023/05/22 12:57:22;;;;;;;6.45;5.85;;;;;;;;;;5011148;28;20173;-75
2023/05/22 13:00:26;;;;;;;11.70;5.53;;;;;;;;;;5034514;28;20181;-74
2023/05/22 13:03:31;;;;;;;38.28;7.53;;;;;;;;;;5034304;28;20597;-73
2023/05/22 13:06:35;;;;;;;8.00;5.40;;;;;;;;;;5034602;28;20647;-74
2023/05/22 13:09:39;;;;;;;8.52;5.45;;;;;;;;;;5022437;28;20529;-74
2023/05/22 13:12:46;;;;;;;8.95;5.38;;;;;;;;;;5022288;28;20563;-74
2023/05/22 13:15:50;;;;;;;6.75;5.35;;;;;;;;;;5021430;28;21241;-74
2023/05/22 13:18:54;;;;;;;5.97;5.32;;;;;;;;;;5034104;28;20193;-74
2023/05/22 13:21:58;;;;;;;5.93;5.03;;;;;;;;;;5033754;28;20737;-74
2023/05/22 13:25:03;;;;;;;5.90;4.78;;;;;;;;;;5032878;28;21014;-75
2023/05/22 13:28:07;;;;;;;5.50;5.00;;;;;;;;;;5022060;28;20180;-74
2023/05/22 13:31:11;;;;;;;8.43;4.78;;;;;;;;;;5033849;28;20185;-74
2023/05/22 13:34:15;;;;;;;5.95;5.20;;;;;;;;;;5033723;28;20551;-74
2023/05/22 13:37:19;;;;;;;5.63;5.10;;;;;;;;;;5034071;28;20181;-75
2023/05/22 13:40:23;;;;;;;60.67;7.03;;;;;;;;;;5033960;28;20181;-75
2023/05/22 13:43:27;;;;;;;8.48;5.05;;;;;;;;;;5033573;28;20579;-75
2023/05/22 13:46:31;;;;;;;7.43;5.15;;;;;;;;;;5021186;28;20177;-75
2023/05/22 13:49:35;;;;;;;6.05;5.05;;;;;;;;;;5033560;28;20181;-75
2023/05/22 13:52:42;;;;;;;8.02;5.10;;;;;;;;;;5033372;28;20220;-75
2023/05/22 13:55:46;;;;;;;7.72;5.70;;;;;;;;;;5021418;28;20205;-74
2023/05/22 13:58:50;;;;;;;7.05;5.40;;;;;;;;;;5033402;28;20177;-75
2023/05/22 14:01:54;;;;;;;5.97;5.10;;;;;;;;;;5033317;28;20213;-75
2023/05/22 14:04:58;;;;;;;7.63;5.70;;;;;;;;;;5033303;28;20177;-74
2023/05/22 14:08:02;;;;;;;5.70;5.00;;;;;;;;;;5010096;28;20189;-74
2023/05/22 14:11:06;;;;;;;6.20;5.60;;;;;;;;;;5033494;28;20186;-74
2023/05/22 14:14:10;;;;;;;7.40;5.50;;;;;;;;;;5033012;28;20197;-74
2023/05/22 14:17:14;;;;;;;8.10;5.32;;;;;;;;;;5021213;28;20517;-75
2023/05/22 14:20:19;;;;;;;9.57;5.10;;;;;;;;;;5033139;28;20184;-75
2023/05/22 14:23:23;;;;;;;6.00;5.50;;;;;;;;;;5032845;28;20224;-74
2023/05/22 14:26:28;;;;;;;6.72;5.07;;;;;;;;;;5033299;28;20173;-74
2023/05/22 14:29:32;;;;;;;6.00;5.25;;;;;;;;;;5033187;28;20177;-74
2023/05/22 14:32:36;;;;;;;5.25;4.75;;;;;;;;;;5032862;28;20667;-74
2023/05/22 14:35:40;;;;;;;6.13;4.88;;;;;;;;;;5020749;28;20213;-74
2023/05/22 14:38:45;;;;;;;7.60;4.68;;;;;;;;;;5032941;28;20173;-74
2023/05/22 14:41:50;;;;;;;14.13;5.55;;;;;;;;;;5020647;28;20220;-74
2023/05/22 14:44:54;;;;;;;7.93;5.10;;;;;;;;;;5032885;28;20182;-74
2023/05/22 14:47:58;;;;;;;7.18;5.00;;;;;;;;;;5033328;28;20173;-75
2023/05/22 14:51:02;;;;;;;9.48;5.70;;;;;;;;;;5033036;28;20177;-75
2023/05/22 14:54:06;;;;;;;6.03;5.30;;;;;;;;;;5032672;28;20185;-75
2023/05/22 14:57:11;;;;;;;7.97;5.25;;;;;;;;;;5020896;28;20173;-74
2023/05/22 15:00:15;;;;;;;6.80;5.25;;;;;;;;;;5013555;28;20181;-75
2023/05/22 15:03:20;;;;;;;6.57;5.40;;;;;;;;;;5024780;28;20221;-75
2023/05/22 15:06:24;;;;;;;5.70;5.10;;;;;;;;;;5036876;28;20173;-75
2023/05/22 15:09:29;;;;;;;8.60;5.30;;;;;;;;;;5036512;28;20197;-75
2023/05/22 15:12:33;;;;;;;12.35;4.88;;;;;;;;;;5036504;28;20209;-74
2023/05/22 15:15:38;;;;;;;6.65;4.90;;;;;;;;;;5036324;28;20235;-74
2023/05/22 15:18:42;;;;;;;6.60;4.53;;;;;;;;;;5036547;28;20523;-74
2023/05/22 15:21:47;;;;;;;6.72;4.65;;;;;;;;;;5013046;28;20224;-75
2023/05/22 15:25:07;;;;;;;8.10;4.82;;;;;;;;;;5024395;28;20177;-75
2023/05/22 15:28:12;;;;;;;5.25;4.45;;;;;;;;;;5036356;28;20527;-75
2023/05/22 15:31:16;;;;;;;6.85;4.60;;;;;;;;;;5023898;28;20527;-74
2023/05/22 15:34:20;;;;;;;18.35;4.72;;;;;;;;;;5036349;28;20604;-74
2023/05/22 15:37:24;;;;;;;17.92;4.80;;;;;;;;;;5012884;28;20177;-74
2023/05/22 15:40:28;;;;;;;7.55;4.05;;;;;;;;;;5035947;28;20188;-74
2023/05/22 15:43:32;;;;;;;5.65;3.80;;;;;;;;;;5023728;28;20220;-75
2023/05/22 15:46:37;;;;;;;4.82;3.90;;;;;;;;;;5035787;28;20181;-74
2023/05/22 15:49:41;;;;;;;6.72;3.90;;;;;;;;;;5035750;28;20185;-74
2023/05/22 15:52:45;;;;;;;4.22;3.80;;;;;;;;;;5012378;28;20213;-74
2023/05/22 15:55:49;;;;;;;10.48;4.70;;;;;;;;;;5023421;28;20555;-76
2023/05/22 15:58:54;;;;;;;7.28;3.85;;;;;;;;;;5023451;28;20187;-74
2023/05/22 16:01:57;;;;;;;4.80;3.85;;;;;;;;;;5035742;28;20213;-74
2023/05/22 16:05:02;;;;;;;7.25;4.00;;;;;;;;;;5023448;28;20179;-74
2023/05/22 16:08:09;;;;;;;6.28;3.78;;;;;;;;;;5035786;28;20184;-75
2023/05/22 16:11:13;;;;;;;6.32;3.85;;;;;;;;;;5035605;28;20183;-74
2023/05/22 16:14:17;;;;;;;6.00;4.22;;;;;;;;;;5035329;28;20209;-75
2023/05/22 16:17:21;;;;;;;6.15;3.85;;;;;;;;;;5035585;28;20188;-74
2023/05/22 16:20:25;;;;;;;4.25;3.85;;;;;;;;;;5023090;28;20177;-74
2023/05/22 16:23:29;;;;;;;4.28;3.88;;;;;;;;;;5035100;28;20214;-74
2023/05/22 16:26:36;;;;;;;11.63;3.83;;;;;;;;;;5035420;28;20172;-74
2023/05/22 16:29:40;;;;;;;12.23;4.57;;;;;;;;;;5035102;28;20259;-74
2023/05/22 16:32:45;;;;;;;4.03;3.53;;;;;;;;;;5034949;28;20229;-73
2023/05/22 16:35:49;;;;;;;23.50;4.85;;;;;;;;;;5022668;28;20689;-73
2023/05/22 16:38:53;;;;;;;9.80;3.90;;;;;;;;;;5034986;28;20183;-74
2023/05/22 16:41:57;;;;;;;8.90;4.15;;;;;;;;;;5034650;28;20228;-74
2023/05/22 16:45:02;;;;;;;5.63;3.55;;;;;;;;;;5035022;28;20527;-74
2023/05/22 16:48:07;;;;;;;5.80;4.28;;;;;;;;;;5034946;28;20203;-74
2023/05/22 16:51:11;;;;;;;5.55;3.83;;;;;;;;;;5034887;28;20196;-73
2023/05/22 16:54:15;;;;;;;5.15;3.58;;;;;;;;;;5022364;28;20206;-74
2023/05/22 16:57:19;;;;;;;4.72;4.05;;;;;;;;;;5022282;28;20230;-74
2023/05/22 17:00:23;;;;;;;5.72;3.53;;;;;;;;;;5022260;28;20193;-74
2023/05/22 17:03:27;;;;;;;5.18;4.32;;;;;;;;;;5034252;28;20222;-74
2023/05/22 17:06:31;;;;;;;9.30;4.13;;;;;;;;;;5022175;28;20368;-74
2023/05/22 17:09:35;;;;;;;8.77;4.18;;;;;;;;;;5034522;28;20520;-74
2023/05/22 17:12:39;;;;;;;5.28;4.28;;;;;;;;;;5034288;28;20700;-74
2023/05/22 17:15:43;;;;;;;6.68;4.22;;;;;;;;;;5022107;28;20216;-74
2023/05/22 17:18:47;;;;;;;11.13;4.15;;;;;;;;;;5021961;28;20171;-74
2023/05/22 17:21:52;;;;;;;12.65;4.40;;;;;;;;;;5021208;28;20217;-73
2023/05/22 17:24:56;;;;;;;5.47;4.43;;;;;;;;;;5022004;28;20199;-74
2023/05/22 17:28:00;;;;;;;5.03;4.10;;;;;;;;;;5034051;28;20193;-74
2023/05/22 17:31:05;;;;;;;8.27;4.50;;;;;;;;;;5034316;28;20192;-74
2023/05/22 17:34:09;;;;;;;4.72;4.20;;;;;;;;;;5034016;28;20175;-73
2023/05/22 17:37:13;;;;;;;5.40;4.35;;;;;;;;;;5021565;28;20207;-74
2023/05/22 17:40:18;;;;;;;6.47;4.53;;;;;;;;;;5010540;28;20181;-74
2023/05/22 17:43:22;;;;;;;7.43;4.15;;;;;;;;;;5033489;28;20226;-73
2023/05/22 17:46:27;;;;;;;8.85;4.50;;;;;;;;;;5033962;28;20174;-73
2023/05/22 17:49:30;;;;;;;5.73;3.90;;;;;;;;;;5021650;28;20614;-73
2023/05/22 17:52:35;;;;;;;5.80;4.23;;;;;;;;;;5033629;28;20215;-73
2023/05/22 17:55:39;;;;;;;6.93;4.50;;;;;;;;;;5021534;28;20208;-74
2023/05/22 17:58:43;;;;;;;5.97;4.40;;;;;;;;;;5033345;28;20180;-74
2023/05/22 18:01:47;;;;;;;6.00;4.80;;;;;;;;;;5033409;28;20222;-74
2023/05/22 18:04:51;;;;;;;12.27;4.60;;;;;;;;;;5033582;28;20183;-74
2023/05/22 18:07:55;;;;;;;7.63;4.87;;;;;;;;;;5021727;28;20189;-74
2023/05/22 18:11:00;;;;;;;8.63;4.90;;;;;;;;;;5033294;28;20192;-74
2023/05/22 18:14:04;;;;;;;11.07;5.00;;;;;;;;;;5033336;28;20195;-74
2023/05/22 18:17:08;;;;;;;7.40;4.80;;;;;;;;;;5021195;28;20235;-74
2023/05/22 18:20:12;;;;;;;9.60;4.73;;;;;;;;;;5033144;28;20192;-73
2023/05/22 18:23:18;;;;;;;10.63;5.13;;;;;;;;;;5021125;28;20562;-74